Time;durP1;ratioP1;P1;durP2;ratioP2;P2;SDS_P1;SDS_P2;PMS_P1;PMS_P2;Temp;Humidity;BMP_temperature;BMP_pressure;BME280_temperature;BME280_humidity;BME280_pressure;Samples;Min_cycle;Max_cycle;Signal;HPM_P1;HPM_P2
2021/11/06 00:01:16;;;;;;;8.70;6.47;;;;;;;;;;4939570;29;20038;-75
2021/11/06 00:03:42;;;;;;;8.90;6.43;;;;;;;;;;4941026;29;20028;-74
2021/11/06 00:06:08;;;;;;;9.20;5.93;;;;;;;;;;4939905;29;20047;-75
2021/11/06 00:08:35;;;;;;;11.38;5.63;;;;;;;;;;4940687;29;20387;-76
2021/11/06 00:11:01;;;;;;;9.20;6.85;;;;;;;;;;4941057;29;20028;-77
2021/11/06 00:13:27;;;;;;;9.07;6.38;;;;;;;;;;4940174;29;20032;-76
2021/11/06 00:15:53;;;;;;;10.60;6.47;;;;;;;;;;4939888;29;20036;-76
2021/11/06 00:18:19;;;;;;;8.20;6.20;;;;;;;;;;4940448;29;20059;-75
2021/11/06 00:20:45;;;;;;;7.72;5.75;;;;;;;;;;4941990;29;20024;-75
2021/11/06 00:23:12;;;;;;;9.18;6.20;;;;;;;;;;4940614;29;20035;-74
2021/11/06 00:25:38;;;;;;;8.43;5.68;;;;;;;;;;4941046;29;20028;-76
2021/11/06 00:28:04;;;;;;;10.00;6.38;;;;;;;;;;4941605;29;20024;-76
2021/11/06 00:30:52;;;;;;;10.35;6.43;;;;;;;;;;4945247;29;20047;-76
2021/11/06 00:33:18;;;;;;;8.57;5.38;;;;;;;;;;4931187;29;20123;-77
2021/11/06 00:35:44;;;;;;;7.50;5.50;;;;;;;;;;4943432;29;20103;-75
2021/11/06 00:38:10;;;;;;;8.05;5.75;;;;;;;;;;4941434;29;20055;-76
2021/11/06 00:40:37;;;;;;;7.45;5.57;;;;;;;;;;4941911;29;20031;-76
2021/11/06 00:43:03;;;;;;;8.45;5.50;;;;;;;;;;4940250;29;20020;-77
2021/11/06 00:45:29;;;;;;;11.00;6.78;;;;;;;;;;4943765;29;20035;-77
2021/11/06 00:47:55;;;;;;;8.98;5.60;;;;;;;;;;4936907;29;20106;-77
2021/11/06 00:50:21;;;;;;;8.63;6.00;;;;;;;;;;4941098;29;20031;-75
2021/11/06 00:52:47;;;;;;;8.55;6.28;;;;;;;;;;4935511;29;20451;-76
2021/11/06 00:55:14;;;;;;;10.70;6.35;;;;;;;;;;4935914;29;20028;-77
2021/11/06 00:57:40;;;;;;;10.05;6.40;;;;;;;;;;4936097;29;20542;-76
2021/11/06 01:00:07;;;;;;;8.93;6.15;;;;;;;;;;4936079;29;20031;-75
2021/11/06 01:02:33;;;;;;;10.85;7.20;;;;;;;;;;4936520;29;20032;-76
2021/11/06 01:04:59;;;;;;;9.95;6.35;;;;;;;;;;4936525;29;20024;-76
2021/11/06 01:07:26;;;;;;;10.27;6.72;;;;;;;;;;4936541;29;20028;-77
2021/11/06 01:09:52;;;;;;;11.98;7.30;;;;;;;;;;4936392;29;20035;-75
2021/11/06 01:12:21;;;;;;;12.23;7.68;;;;;;;;;;4937137;29;20115;-75
2021/11/06 01:14:47;;;;;;;12.70;7.68;;;;;;;;;;4940089;29;20031;-75
2021/11/06 01:17:13;;;;;;;13.32;7.97;;;;;;;;;;4940049;29;20064;-75
2021/11/06 01:19:39;;;;;;;13.43;8.05;;;;;;;;;;4939864;29;20483;-74
2021/11/06 01:22:05;;;;;;;13.55;8.40;;;;;;;;;;4939393;29;20028;-76
2021/11/06 01:24:31;;;;;;;13.73;8.43;;;;;;;;;;4939571;29;20056;-76
2021/11/06 01:26:58;;;;;;;12.00;7.88;;;;;;;;;;4939355;29;20020;-76
2021/11/06 01:29:24;;;;;;;16.38;8.45;;;;;;;;;;4939737;29;20020;-76
2021/11/06 01:31:50;;;;;;;13.68;8.32;;;;;;;;;;4939304;29;20034;-76
2021/11/06 01:34:16;;;;;;;10.32;7.22;;;;;;;;;;4939582;29;20061;-76
2021/11/06 01:36:42;;;;;;;14.75;8.50;;;;;;;;;;4939621;29;20471;-76
2021/11/06 01:39:08;;;;;;;11.95;7.80;;;;;;;;;;4939994;29;20028;-76
2021/11/06 01:41:35;;;;;;;16.13;9.02;;;;;;;;;;4941727;29;20019;-76
2021/11/06 01:44:01;;;;;;;12.77;8.13;;;;;;;;;;4939518;29;20035;-75
2021/11/06 01:46:29;;;;;;;13.77;7.80;;;;;;;;;;4939397;29;20032;-76
2021/11/06 01:48:56;;;;;;;12.82;8.48;;;;;;;;;;4939819;29;20505;-76
2021/11/06 01:51:22;;;;;;;14.63;8.60;;;;;;;;;;4939277;29;20054;-75
2021/11/06 01:53:49;;;;;;;10.77;7.50;;;;;;;;;;4940672;29;20076;-76
2021/11/06 01:56:15;;;;;;;11.45;8.05;;;;;;;;;;4939652;29;20031;-76
2021/11/06 01:58:42;;;;;;;10.27;6.68;;;;;;;;;;4939513;29;20112;-76
2021/11/06 02:01:08;;;;;;;11.50;6.60;;;;;;;;;;4939786;29;20028;-74
2021/11/06 02:03:34;;;;;;;9.50;6.78;;;;;;;;;;4939662;29;20498;-76
2021/11/06 02:06:01;;;;;;;8.93;5.88;;;;;;;;;;4940253;29;20110;-76
2021/11/06 02:08:27;;;;;;;9.98;6.63;;;;;;;;;;4940160;29;20106;-75
2021/11/06 02:10:53;;;;;;;7.13;4.82;;;;;;;;;;4939882;29;20374;-76
2021/11/06 02:13:20;;;;;;;7.30;5.30;;;;;;;;;;4939771;29;20038;-76
2021/11/06 02:15:47;;;;;;;7.22;4.47;;;;;;;;;;4939450;29;20028;-76
2021/11/06 02:18:13;;;;;;;7.85;5.85;;;;;;;;;;4939826;29;20074;-76
2021/11/06 02:20:50;;;;;;;6.70;5.00;;;;;;;;;;4939968;29;20058;-75
2021/11/06 02:23:16;;;;;;;7.15;5.50;;;;;;;;;;4938918;29;20079;-75
2021/11/06 02:25:42;;;;;;;9.75;5.30;;;;;;;;;;4939554;29;20035;-76
2021/11/06 02:28:09;;;;;;;5.03;3.85;;;;;;;;;;4939702;29;20031;-76
2021/11/06 02:30:36;;;;;;;7.07;4.15;;;;;;;;;;4939701;29;20146;-75
2021/11/06 02:33:03;;;;;;;5.28;3.65;;;;;;;;;;4939167;29;20020;-75
2021/11/06 02:35:29;;;;;;;5.40;3.90;;;;;;;;;;4939433;29;20023;-77
2021/11/06 02:37:56;;;;;;;5.80;4.10;;;;;;;;;;4939841;29;20040;-76
2021/11/06 02:40:22;;;;;;;7.40;4.35;;;;;;;;;;4939309;29;20035;-76
2021/11/06 02:42:48;;;;;;;4.28;3.58;;;;;;;;;;4939225;29;20028;-75
2021/11/06 02:45:14;;;;;;;6.25;3.90;;;;;;;;;;4939579;29;20478;-75
2021/11/06 02:47:40;;;;;;;5.45;3.90;;;;;;;;;;4939059;29;20492;-76
2021/11/06 02:50:07;;;;;;;4.30;3.67;;;;;;;;;;4939250;29;20032;-76
2021/11/06 02:52:33;;;;;;;4.78;3.65;;;;;;;;;;4939531;29;20497;-76
2021/11/06 02:54:59;;;;;;;10.25;4.35;;;;;;;;;;4939773;29;20028;-75
2021/11/06 02:57:27;;;;;;;5.35;3.97;;;;;;;;;;4939136;29;20027;-75
2021/11/06 02:59:54;;;;;;;4.75;3.58;;;;;;;;;;4939211;29;20024;-76
2021/11/06 03:02:20;;;;;;;4.13;3.20;;;;;;;;;;4939123;29;20509;-77
2021/11/06 03:04:46;;;;;;;5.75;3.10;;;;;;;;;;4940172;29;20111;-76
2021/11/06 03:07:12;;;;;;;5.75;4.00;;;;;;;;;;4938698;29;20024;-76
2021/11/06 03:09:39;;;;;;;5.78;3.25;;;;;;;;;;4938931;29;20055;-77
2021/11/06 03:12:09;;;;;;;5.60;4.18;;;;;;;;;;4938738;29;20023;-76
2021/11/06 03:14:36;;;;;;;5.13;3.40;;;;;;;;;;4938851;29;20032;-75
2021/11/06 03:17:02;;;;;;;5.03;3.88;;;;;;;;;;4938526;29;20028;-74
2021/11/06 03:19:28;;;;;;;4.68;3.50;;;;;;;;;;4938347;29;20031;-76
2021/11/06 03:21:55;;;;;;;8.02;3.70;;;;;;;;;;4939473;29;20411;-76
2021/11/06 03:24:21;;;;;;;8.40;4.30;;;;;;;;;;4938896;29;20046;-75
2021/11/06 03:26:47;;;;;;;4.80;3.42;;;;;;;;;;4938305;29;20031;-76
2021/11/06 03:29:13;;;;;;;6.68;3.70;;;;;;;;;;4937899;29;20082;-78
2021/11/06 03:31:39;;;;;;;4.35;3.08;;;;;;;;;;4938108;29;20020;-77
2021/11/06 03:34:05;;;;;;;5.18;3.17;;;;;;;;;;4921416;29;20032;-75
2021/11/06 03:36:32;;;;;;;4.97;3.13;;;;;;;;;;4937899;29;20054;-76
2021/11/06 03:38:58;;;;;;;5.20;2.95;;;;;;;;;;4938155;29;20039;-76
2021/11/06 03:41:25;;;;;;;5.95;2.80;;;;;;;;;;4938495;29;20032;-76
2021/11/06 03:43:51;;;;;;;4.55;3.03;;;;;;;;;;4938360;29;20471;-77
2021/11/06 03:46:17;;;;;;;6.20;2.88;;;;;;;;;;4937859;29;20036;-75
2021/11/06 03:48:43;;;;;;;3.88;2.80;;;;;;;;;;4921797;29;20058;-75
2021/11/06 03:51:09;;;;;;;4.75;2.83;;;;;;;;;;4938527;29;20031;-75
2021/11/06 03:53:35;;;;;;;5.70;2.97;;;;;;;;;;4938321;29;20051;-75
2021/11/06 03:56:03;;;;;;;4.03;2.50;;;;;;;;;;4938104;29;20511;-76
2021/11/06 03:58:29;;;;;;;5.70;2.88;;;;;;;;;;4920769;29;20075;-76
2021/11/06 04:00:55;;;;;;;3.50;2.53;;;;;;;;;;4938275;29;20032;-75
2021/11/06 04:03:21;;;;;;;4.25;2.60;;;;;;;;;;4937683;29;20110;-78
2021/11/06 04:05:47;;;;;;;3.28;2.70;;;;;;;;;;4937728;29;20038;-74
2021/11/06 04:08:13;;;;;;;3.75;2.75;;;;;;;;;;4937969;29;20606;-76
2021/11/06 04:10:39;;;;;;;4.00;2.50;;;;;;;;;;4937715;29;20024;-77
2021/11/06 04:13:06;;;;;;;3.72;2.13;;;;;;;;;;4938111;29;20032;-76
2021/11/06 04:15:32;;;;;;;4.25;2.08;;;;;;;;;;4937909;29;20027;-75
2021/11/06 04:17:58;;;;;;;3.03;2.40;;;;;;;;;;4937946;29;20035;-75
2021/11/06 04:20:25;;;;;;;2.83;2.53;;;;;;;;;;4937679;29;20028;-76
2021/11/06 04:22:51;;;;;;;3.42;2.30;;;;;;;;;;4920651;29;20066;-74
2021/11/06 04:25:18;;;;;;;3.33;2.65;;;;;;;;;;4937398;29;20549;-76
2021/11/06 04:27:44;;;;;;;4.28;2.90;;;;;;;;;;4937465;29;20119;-76
2021/11/06 04:30:10;;;;;;;2.83;2.53;;;;;;;;;;4920381;29;20434;-77
2021/11/06 04:32:36;;;;;;;4.45;2.97;;;;;;;;;;4937648;29;20043;-76
2021/11/06 04:35:03;;;;;;;3.65;3.00;;;;;;;;;;4920829;29;20086;-76
2021/11/06 04:37:29;;;;;;;5.60;3.28;;;;;;;;;;4937725;29;20107;-75
2021/11/06 04:39:55;;;;;;;5.70;2.90;;;;;;;;;;4937711;29;20034;-76
2021/11/06 04:42:21;;;;;;;3.20;2.78;;;;;;;;;;4938464;29;20387;-76
2021/11/06 04:44:47;;;;;;;4.28;2.75;;;;;;;;;;4938085;29;20019;-76
2021/11/06 04:47:13;;;;;;;4.43;3.10;;;;;;;;;;4937237;29;20482;-75
2021/11/06 04:49:39;;;;;;;4.32;2.60;;;;;;;;;;4937892;29;20024;-74
2021/11/06 04:52:06;;;;;;;3.47;2.67;;;;;;;;;;4938495;29;20023;-76
2021/11/06 04:54:32;;;;;;;3.85;3.10;;;;;;;;;;4937843;29;20044;-76
2021/11/06 04:56:58;;;;;;;3.63;2.80;;;;;;;;;;4938358;29;20038;-76
2021/11/06 04:59:24;;;;;;;4.25;3.05;;;;;;;;;;4938700;29;20545;-74
2021/11/06 05:01:51;;;;;;;4.22;2.75;;;;;;;;;;4937671;29;20411;-76
2021/11/06 05:04:17;;;;;;;4.93;3.25;;;;;;;;;;4938559;29;20024;-75
2021/11/06 05:06:43;;;;;;;4.00;2.83;;;;;;;;;;4938297;29;20031;-75
2021/11/06 05:09:09;;;;;;;4.10;2.85;;;;;;;;;;4938750;29;20024;-75
2021/11/06 05:11:35;;;;;;;3.58;2.83;;;;;;;;;;4921567;29;20027;-77
2021/11/06 05:14:01;;;;;;;3.85;2.58;;;;;;;;;;4939466;29;20024;-76
2021/11/06 05:16:27;;;;;;;4.38;2.80;;;;;;;;;;4939215;29;20031;-76
2021/11/06 05:18:55;;;;;;;3.63;2.80;;;;;;;;;;4939724;29;20521;-76
2021/11/06 05:21:21;;;;;;;3.65;2.70;;;;;;;;;;4939423;29;20028;-75
2021/11/06 05:23:48;;;;;;;4.57;2.50;;;;;;;;;;4938810;29;20032;-76
2021/11/06 05:26:14;;;;;;;2.97;2.53;;;;;;;;;;4939080;29;20032;-75
2021/11/06 05:28:42;;;;;;;3.78;2.53;;;;;;;;;;4940784;29;20114;-75
2021/11/06 05:31:08;;;;;;;3.28;2.42;;;;;;;;;;4932625;29;20024;-76
2021/11/06 05:33:34;;;;;;;2.85;2.45;;;;;;;;;;4955039;29;20034;-77
2021/11/06 05:36:00;;;;;;;3.15;2.70;;;;;;;;;;4953120;29;20036;-77
2021/11/06 05:38:26;;;;;;;3.80;2.40;;;;;;;;;;4952660;29;20043;-75
2021/11/06 05:40:52;;;;;;;3.38;2.45;;;;;;;;;;4951342;29;20028;-77
2021/11/06 05:43:18;;;;;;;2.83;2.30;;;;;;;;;;4953344;29;20032;-75
2021/11/06 05:45:45;;;;;;;2.50;2.20;;;;;;;;;;4953185;29;20023;-76
2021/11/06 05:48:11;;;;;;;3.15;2.70;;;;;;;;;;4952485;29;20024;-75
2021/11/06 05:50:37;;;;;;;3.80;2.45;;;;;;;;;;4952882;29;20027;-74
2021/11/06 05:53:03;;;;;;;3.63;2.78;;;;;;;;;;4951614;29;20043;-76
2021/11/06 05:55:29;;;;;;;3.65;2.10;;;;;;;;;;4953092;29;20130;-74
2021/11/06 05:57:55;;;;;;;2.45;2.17;;;;;;;;;;4952049;29;20038;-76
2021/11/06 06:00:21;;;;;;;3.53;2.10;;;;;;;;;;4956860;29;20036;-75
2021/11/06 06:02:48;;;;;;;3.42;2.40;;;;;;;;;;4957516;29;20076;-75
2021/11/06 06:05:14;;;;;;;2.90;2.20;;;;;;;;;;4955730;29;20871;-78
2021/11/06 06:07:41;;;;;;;2.40;1.92;;;;;;;;;;4957470;29;20039;-77
2021/11/06 06:10:09;;;;;;;3.45;2.20;;;;;;;;;;4957523;29;20028;-75
2021/11/06 06:12:35;;;;;;;4.35;2.40;;;;;;;;;;4957522;29;20034;-76
2021/11/06 06:15:02;;;;;;;2.78;2.13;;;;;;;;;;4962895;29;20055;-77
2021/11/06 06:17:28;;;;;;;3.83;1.98;;;;;;;;;;4956129;29;20019;-74
2021/11/06 06:19:54;;;;;;;2.85;2.30;;;;;;;;;;4945194;29;20441;-75
2021/11/06 06:22:22;;;;;;;3.47;2.28;;;;;;;;;;4944483;29;20087;-74
2021/11/06 06:24:48;;;;;;;2.30;2.08;;;;;;;;;;4944817;29;20031;-75
2021/11/06 06:27:14;;;;;;;3.67;2.28;;;;;;;;;;4944219;29;20054;-75
2021/11/06 06:29:41;;;;;;;3.28;2.70;;;;;;;;;;4943848;29;20020;-76
2021/11/06 06:32:07;;;;;;;2.85;2.65;;;;;;;;;;4944198;29;20028;-74
2021/11/06 06:34:33;;;;;;;3.10;2.20;;;;;;;;;;4943522;29;20054;-74
2021/11/06 06:36:59;;;;;;;3.63;1.90;;;;;;;;;;4943805;29;20027;-75
2021/11/06 06:39:25;;;;;;;3.72;2.15;;;;;;;;;;4926843;29;20440;-75
2021/11/06 06:41:51;;;;;;;3.20;2.13;;;;;;;;;;4944032;29;20020;-73
2021/11/06 06:44:18;;;;;;;2.55;1.98;;;;;;;;;;4943822;29;20114;-76
2021/11/06 06:46:44;;;;;;;2.22;1.98;;;;;;;;;;4943782;29;20024;-74
2021/11/06 06:49:10;;;;;;;2.38;2.10;;;;;;;;;;4926702;29;20034;-74
2021/11/06 06:51:37;;;;;;;3.17;2.55;;;;;;;;;;4944724;29;20032;-74
2021/11/06 06:54:03;;;;;;;3.20;2.00;;;;;;;;;;4942816;29;20039;-75
2021/11/06 06:56:29;;;;;;;2.42;2.10;;;;;;;;;;4943248;29;20030;-74
2021/11/06 06:58:55;;;;;;;1.83;1.70;;;;;;;;;;4942699;29;20040;-75
2021/11/06 07:01:21;;;;;;;2.72;2.03;;;;;;;;;;4942501;29;20059;-75
2021/11/06 07:03:47;;;;;;;2.45;1.83;;;;;;;;;;4941941;29;20034;-76
2021/11/06 07:06:13;;;;;;;2.20;1.80;;;;;;;;;;4940343;29;20032;-77
2021/11/06 07:08:39;;;;;;;2.30;1.90;;;;;;;;;;4938246;29;20494;-75
2021/11/06 07:11:05;;;;;;;2.80;1.92;;;;;;;;;;4938930;29;20032;-76
2021/11/06 07:13:34;;;;;;;2.58;2.38;;;;;;;;;;4937759;29;20031;-76
2021/11/06 07:16:01;;;;;;;5.47;2.78;;;;;;;;;;4937703;29;20020;-77
2021/11/06 07:18:27;;;;;;;2.67;1.80;;;;;;;;;;4937231;29;20031;-76
2021/11/06 07:20:53;;;;;;;2.25;1.90;;;;;;;;;;4920819;29;20060;-76
2021/11/06 07:23:19;;;;;;;2.97;2.10;;;;;;;;;;4937974;29;20504;-76
2021/11/06 07:25:46;;;;;;;1.95;1.75;;;;;;;;;;4937628;29;20462;-78
2021/11/06 07:28:12;;;;;;;2.50;1.70;;;;;;;;;;4937081;29;20032;-77
2021/11/06 07:30:38;;;;;;;3.17;2.20;;;;;;;;;;4920149;29;20390;-76
2021/11/06 07:33:04;;;;;;;2.22;1.85;;;;;;;;;;4939703;29;20036;-74
2021/11/06 07:35:31;;;;;;;2.15;1.80;;;;;;;;;;4940311;29;20110;-75
2021/11/06 07:37:57;;;;;;;2.50;1.70;;;;;;;;;;4940338;29;20035;-76
2021/11/06 07:40:24;;;;;;;1.90;1.70;;;;;;;;;;4941880;29;20116;-73
2021/11/06 07:42:53;;;;;;;4.03;1.90;;;;;;;;;;4940597;29;20055;-75
2021/11/06 07:45:20;;;;;;;2.90;1.90;;;;;;;;;;4923990;29;20035;-76
2021/11/06 07:47:46;;;;;;;1.70;1.60;;;;;;;;;;4939282;29;20039;-76
2021/11/06 07:50:15;;;;;;;6.03;2.17;;;;;;;;;;4938751;29;20394;-73
2021/11/06 07:52:41;;;;;;;1.83;1.73;;;;;;;;;;4939559;29;20028;-77
2021/11/06 07:55:08;;;;;;;2.10;1.75;;;;;;;;;;4924548;29;20038;-76
2021/11/06 07:57:35;;;;;;;2.47;1.80;;;;;;;;;;4940223;29;20035;-76
2021/11/06 08:00:03;;;;;;;2.17;1.90;;;;;;;;;;4941296;29;20083;-76
2021/11/06 08:02:30;;;;;;;2.60;1.88;;;;;;;;;;4938439;29;20511;-75
2021/11/06 08:04:56;;;;;;;3.30;2.08;;;;;;;;;;4921954;29;20039;-76
2021/11/06 08:07:22;;;;;;;2.97;1.90;;;;;;;;;;4938094;29;20055;-77
2021/11/06 08:09:48;;;;;;;2.72;1.95;;;;;;;;;;4937771;29;20043;-77
2021/11/06 08:12:14;;;;;;;2.22;2.03;;;;;;;;;;4924274;29;20376;-76
2021/11/06 08:14:40;;;;;;;2.38;2.00;;;;;;;;;;4943759;29;20020;-75
2021/11/06 08:17:07;;;;;;;3.20;1.95;;;;;;;;;;4938843;29;20039;-75
2021/11/06 08:19:33;;;;;;;2.08;1.77;;;;;;;;;;4942345;29;20075;-77
2021/11/06 08:21:59;;;;;;;2.28;1.80;;;;;;;;;;4940107;29;20032;-75
2021/11/06 08:24:25;;;;;;;1.98;1.70;;;;;;;;;;4939586;29;20031;-79
2021/11/06 08:26:52;;;;;;;4.15;1.92;;;;;;;;;;4939812;29;20086;-76
2021/11/06 08:29:18;;;;;;;2.28;1.80;;;;;;;;;;4939323;29;20030;-76
2021/11/06 08:31:44;;;;;;;2.67;1.63;;;;;;;;;;4939146;29;20024;-76
2021/11/06 08:34:10;;;;;;;2.28;1.70;;;;;;;;;;4938859;29;20063;-76
2021/11/06 08:36:37;;;;;;;2.20;1.90;;;;;;;;;;4937448;29;20521;-75
2021/11/06 08:39:04;;;;;;;2.33;1.63;;;;;;;;;;4938431;29;20067;-76
2021/11/06 08:41:30;;;;;;;2.95;1.77;;;;;;;;;;4938185;29;20391;-75
2021/11/06 08:43:56;;;;;;;2.30;1.67;;;;;;;;;;4937566;29;20110;-76
2021/11/06 08:46:22;;;;;;;3.20;1.70;;;;;;;;;;4937677;29;20047;-76
2021/11/06 08:48:49;;;;;;;1.65;1.40;;;;;;;;;;4936941;29;20118;-76
2021/11/06 08:51:15;;;;;;;3.63;1.70;;;;;;;;;;4936122;29;20156;-77
2021/11/06 08:53:41;;;;;;;1.88;1.70;;;;;;;;;;4935934;29;20044;-76
2021/11/06 08:56:07;;;;;;;3.15;1.50;;;;;;;;;;4936852;29;20098;-76
2021/11/06 08:58:33;;;;;;;2.45;1.92;;;;;;;;;;4919906;29;20099;-76
2021/11/06 09:01:00;;;;;;;1.90;1.70;;;;;;;;;;4936405;29;20483;-76
2021/11/06 09:03:26;;;;;;;1.33;1.30;;;;;;;;;;4936774;29;20036;-76
2021/11/06 09:05:53;;;;;;;1.90;1.70;;;;;;;;;;4936652;29;20027;-74
2021/11/06 09:08:26;;;;;;;1.60;1.50;;;;;;;;;;4919244;29;20411;-75
2021/11/06 09:10:55;;;;;;;1.70;1.60;;;;;;;;;;4936060;29;20024;-75
2021/11/06 09:13:21;;;;;;;4.07;1.48;;;;;;;;;;4919311;29;20038;-76
2021/11/06 09:15:48;;;;;;;2.08;1.88;;;;;;;;;;4937779;29;20467;-76
2021/11/06 09:18:14;;;;;;;1.70;1.60;;;;;;;;;;4936722;29;20027;-75
2021/11/06 09:20:40;;;;;;;3.83;1.50;;;;;;;;;;4936214;29;20158;-75
2021/11/06 09:23:06;;;;;;;1.50;1.40;;;;;;;;;;4935811;29;20027;-76
2021/11/06 09:25:32;;;;;;;2.33;2.05;;;;;;;;;;4935237;29;20123;-75
2021/11/06 09:27:59;;;;;;;1.50;1.40;;;;;;;;;;4935722;29;20043;-75
2021/11/06 09:30:25;;;;;;;1.83;1.73;;;;;;;;;;4917964;29;20023;-74
2021/11/06 09:32:51;;;;;;;1.75;1.50;;;;;;;;;;4935427;29;20019;-75
2021/11/06 09:35:17;;;;;;;3.10;1.65;;;;;;;;;;4921735;29;20032;-75
2021/11/06 09:37:43;;;;;;;2.70;1.50;;;;;;;;;;4940290;29;20028;-75
2021/11/06 09:40:10;;;;;;;1.70;1.30;;;;;;;;;;4944719;29;20032;-74
2021/11/06 09:42:39;;;;;;;3.75;2.08;;;;;;;;;;4939574;29;20039;-76
2021/11/06 09:45:06;;;;;;;1.60;1.50;;;;;;;;;;4941019;29;20078;-76
2021/11/06 09:47:32;;;;;;;3.15;1.50;;;;;;;;;;4939760;29;20451;-76
2021/11/06 09:49:58;;;;;;;2.92;1.58;;;;;;;;;;4940536;29;20475;-74
2021/11/06 09:52:24;;;;;;;3.10;1.77;;;;;;;;;;4940434;29;20063;-75
2021/11/06 09:54:51;;;;;;;1.85;1.70;;;;;;;;;;4939941;29;20044;-76
2021/11/06 09:57:17;;;;;;;2.13;1.50;;;;;;;;;;4939739;29;20035;-77
2021/11/06 09:59:43;;;;;;;2.05;1.50;;;;;;;;;;4939444;29;20106;-76
2021/11/06 10:02:09;;;;;;;3.20;1.55;;;;;;;;;;4939177;29;20534;-74
2021/11/06 10:04:35;;;;;;;2.08;1.70;;;;;;;;;;4940111;29;20032;-74
2021/11/06 10:07:14;;;;;;;2.50;1.30;;;;;;;;;;4939381;29;20024;-74
2021/11/06 10:09:40;;;;;;;3.65;1.70;;;;;;;;;;4939888;29;20550;-75
2021/11/06 10:12:06;;;;;;;3.80;1.40;;;;;;;;;;4939990;29;20035;-75
2021/11/06 10:14:34;;;;;;;3.70;1.45;;;;;;;;;;4922764;29;20023;-77
2021/11/06 10:17:01;;;;;;;1.70;1.50;;;;;;;;;;4938774;29;20074;-76
2021/11/06 10:19:29;;;;;;;4.25;1.65;;;;;;;;;;4938716;29;20550;-75
2021/11/06 10:22:17;;;;;;;1.67;1.58;;;;;;;;;;4938542;29;20035;-77
2021/11/06 10:24:45;;;;;;;2.60;1.40;;;;;;;;;;4939192;29;20024;-76
2021/11/06 10:27:14;;;;;;;3.13;1.70;;;;;;;;;;4940988;29;20024;-76
2021/11/06 10:29:40;;;;;;;2.42;1.92;;;;;;;;;;4939640;29;20071;-75
2021/11/06 10:32:06;;;;;;;2.88;1.63;;;;;;;;;;4939117;29;20031;-77
2021/11/06 10:34:34;;;;;;;2.40;1.33;;;;;;;;;;4939156;29;20502;-75
2021/11/06 10:37:05;;;;;;;1.50;1.42;;;;;;;;;;4939513;29;20032;-77
2021/11/06 10:39:32;;;;;;;2.33;1.52;;;;;;;;;;4939519;29;20148;-74
2021/11/06 10:42:15;;;;;;;6.43;1.75;;;;;;;;;;4938142;29;20024;-75
2021/11/06 10:44:41;;;;;;;4.18;1.60;;;;;;;;;;4939137;29;20020;-75
2021/11/06 10:47:08;;;;;;;5.03;1.63;;;;;;;;;;4921953;29;20091;-76
2021/11/06 10:49:38;;;;;;;1.67;1.58;;;;;;;;;;4939709;29;20023;-75
2021/11/06 10:52:16;;;;;;;2.47;1.58;;;;;;;;;;4921766;29;20114;-75
2021/11/06 10:55:00;;;;;;;1.42;1.33;;;;;;;;;;4938519;29;20040;-75
2021/11/06 10:57:27;;;;;;;3.28;1.40;;;;;;;;;;4938668;29;20505;-74
2021/11/06 11:00:11;;;;;;;3.17;1.85;;;;;;;;;;4938733;29;20039;-75
2021/11/06 11:02:37;;;;;;;7.45;1.70;;;;;;;;;;4938296;29;20087;-76
2021/11/06 11:05:04;;;;;;;3.28;1.58;;;;;;;;;;4938154;29;20483;-76
2021/11/06 11:07:30;;;;;;;4.32;1.77;;;;;;;;;;4938493;29;20501;-76
2021/11/06 11:09:57;;;;;;;5.22;1.85;;;;;;;;;;4938563;29;20027;-76
2021/11/06 11:12:23;;;;;;;3.08;1.65;;;;;;;;;;4921087;29;20023;-76
2021/11/06 11:14:51;;;;;;;3.53;1.60;;;;;;;;;;4938455;29;20024;-75
2021/11/06 11:17:17;;;;;;;4.70;2.00;;;;;;;;;;4938081;29;20028;-76
2021/11/06 11:19:45;;;;;;;5.07;2.55;;;;;;;;;;4938953;29;20028;-74
2021/11/06 11:22:25;;;;;;;2.90;1.92;;;;;;;;;;4938115;29;20506;-75
2021/11/06 11:24:51;;;;;;;5.22;4.40;;;;;;;;;;4937745;29;20027;-75
2021/11/06 11:27:17;;;;;;;8.00;3.38;;;;;;;;;;4937575;29;20032;-75
2021/11/06 11:29:44;;;;;;;3.55;2.53;;;;;;;;;;4919785;29;20027;-74
2021/11/06 11:32:11;;;;;;;4.05;3.05;;;;;;;;;;4936539;29;20530;-75
2021/11/06 11:34:40;;;;;;;5.78;3.20;;;;;;;;;;4936918;29;20041;-75
2021/11/06 11:37:07;;;;;;;3.80;2.40;;;;;;;;;;4936446;29;20030;-74
2021/11/06 11:39:33;;;;;;;4.05;2.60;;;;;;;;;;4936084;29;20024;-77
2021/11/06 11:42:20;;;;;;;4.22;2.45;;;;;;;;;;4936941;29;20032;-76
2021/11/06 11:45:05;;;;;;;4.35;2.30;;;;;;;;;;4937027;29;20027;-76
2021/11/06 11:47:34;;;;;;;6.00;3.78;;;;;;;;;;4920407;29;20024;-76
2021/11/06 11:50:01;;;;;;;15.18;13.60;;;;;;;;;;4937300;29;20034;-76
2021/11/06 11:52:32;;;;;;;3.70;2.50;;;;;;;;;;4936614;29;20055;-74
2021/11/06 11:55:12;;;;;;;3.70;2.42;;;;;;;;;;4936864;29;20518;-77
2021/11/06 11:57:40;;;;;;;3.40;1.98;;;;;;;;;;4936608;29;20414;-75
2021/11/06 12:00:18;;;;;;;2.95;2.30;;;;;;;;;;4937190;29;20510;-74
2021/11/06 12:02:56;;;;;;;3.75;2.00;;;;;;;;;;4936841;29;20035;-76
2021/11/06 12:05:22;;;;;;;3.15;1.90;;;;;;;;;;4937115;29;20023;-74
2021/11/06 12:08:08;;;;;;;3.08;1.98;;;;;;;;;;4936661;29;20137;-76
2021/11/06 12:10:35;;;;;;;3.65;2.13;;;;;;;;;;4936947;29;20102;-76
2021/11/06 12:13:05;;;;;;;2.33;2.10;;;;;;;;;;4936993;29;20079;-75
2021/11/06 12:15:49;;;;;;;4.35;2.45;;;;;;;;;;4937569;29;20087;-75
2021/11/06 12:18:34;;;;;;;5.63;2.45;;;;;;;;;;4937289;29;20414;-75
2021/11/06 12:21:16;;;;;;;4.22;2.60;;;;;;;;;;4936529;29;20031;-74
2021/11/06 12:23:46;;;;;;;5.40;4.18;;;;;;;;;;4937079;29;20053;-78
2021/11/06 12:26:16;;;;;;;3.67;2.10;;;;;;;;;;4936575;29;20062;-75
2021/11/06 12:28:43;;;;;;;5.00;1.88;;;;;;;;;;4937108;29;20032;-74
2021/11/06 12:31:24;;;;;;;6.28;1.85;;;;;;;;;;4936603;29;20024;-75
2021/11/06 12:33:50;;;;;;;2.33;2.00;;;;;;;;;;4936953;29;20039;-77
2021/11/06 12:36:19;;;;;;;3.20;2.50;;;;;;;;;;4936740;29;20634;-75
2021/11/06 12:38:46;;;;;;;2.40;2.00;;;;;;;;;;4919651;29;20035;-77
2021/11/06 12:41:12;;;;;;;2.63;1.80;;;;;;;;;;4938304;29;20111;-74
2021/11/06 12:43:59;;;;;;;3.58;1.73;;;;;;;;;;4937029;29;20095;-74
2021/11/06 12:46:27;;;;;;;2.72;1.90;;;;;;;;;;4937400;29;20024;-75
2021/11/06 12:48:57;;;;;;;2.03;1.80;;;;;;;;;;4936763;29;20059;-76
2021/11/06 12:51:31;;;;;;;4.38;2.15;;;;;;;;;;4920685;29;20023;-75
2021/11/06 12:54:09;;;;;;;2.25;1.80;;;;;;;;;;4936707;29;20058;-76
2021/11/06 12:56:37;;;;;;;2.00;1.80;;;;;;;;;;4936737;29;20024;-76
2021/11/06 12:59:03;;;;;;;3.00;2.15;;;;;;;;;;4936815;29;20031;-75
2021/11/06 13:01:30;;;;;;;3.05;2.40;;;;;;;;;;4937097;29;20028;-75
2021/11/06 13:03:57;;;;;;;3.30;2.03;;;;;;;;;;4937135;29;20035;-76
2021/11/06 13:06:34;;;;;;;3.80;2.10;;;;;;;;;;4936485;29;20031;-75
2021/11/06 13:09:03;;;;;;;2.55;2.15;;;;;;;;;;4940536;29;20024;-75
2021/11/06 13:11:45;;;;;;;2.08;1.85;;;;;;;;;;4940807;29;20032;-75
2021/11/06 13:14:11;;;;;;;3.65;2.60;;;;;;;;;;4940528;29;20062;-74
2021/11/06 13:16:38;;;;;;;7.15;2.22;;;;;;;;;;4923039;29;20027;-75
2021/11/06 13:19:04;;;;;;;3.97;2.20;;;;;;;;;;4941271;29;20039;-75
2021/11/06 13:21:30;;;;;;;2.28;2.08;;;;;;;;;;4942406;29;20030;-72
2021/11/06 13:23:57;;;;;;;4.65;2.20;;;;;;;;;;4942626;29;20082;-75
2021/11/06 13:26:23;;;;;;;1.80;1.70;;;;;;;;;;4941896;29;20034;-76
2021/11/06 13:28:54;;;;;;;3.95;1.95;;;;;;;;;;4941846;29;20114;-73
2021/11/06 13:31:20;;;;;;;2.13;1.80;;;;;;;;;;4942936;29;20038;-73
2021/11/06 13:33:50;;;;;;;2.33;1.90;;;;;;;;;;4941258;29;20548;-74
2021/11/06 13:36:18;;;;;;;3.53;1.90;;;;;;;;;;4941652;29;20027;-76
2021/11/06 13:39:03;;;;;;;2.72;1.92;;;;;;;;;;4941515;29;20035;-74
2021/11/06 13:41:29;;;;;;;3.58;2.25;;;;;;;;;;4940806;29;20023;-74
2021/11/06 13:43:55;;;;;;;3.50;2.05;;;;;;;;;;4941426;29;20451;-72
2021/11/06 13:46:42;;;;;;;3.20;2.20;;;;;;;;;;4939778;29;20086;-73
2021/11/06 13:49:10;;;;;;;3.17;2.30;;;;;;;;;;4938897;29;20038;-75
2021/11/06 13:51:41;;;;;;;4.88;2.25;;;;;;;;;;4939847;29;20020;-73
2021/11/06 13:54:26;;;;;;;5.72;2.72;;;;;;;;;;4941884;29;20063;-74
2021/11/06 13:57:06;;;;;;;4.47;2.10;;;;;;;;;;4942784;29;20038;-76
2021/11/06 13:59:42;;;;;;;3.25;2.45;;;;;;;;;;4943260;29;20020;-74
2021/11/06 14:02:11;;;;;;;3.38;2.53;;;;;;;;;;4945920;29;20088;-72
2021/11/06 14:04:45;;;;;;;2.25;1.92;;;;;;;;;;4945768;29;20035;-74
2021/11/06 14:07:22;;;;;;;2.75;2.30;;;;;;;;;;4945004;29;20028;-74
2021/11/06 14:09:50;;;;;;;2.78;2.30;;;;;;;;;;4945176;29;20024;-73
2021/11/06 14:12:16;;;;;;;2.50;2.13;;;;;;;;;;4929673;29;20103;-74
2021/11/06 14:14:50;;;;;;;3.58;2.67;;;;;;;;;;4945952;29;20031;-72
2021/11/06 14:17:16;;;;;;;2.85;2.30;;;;;;;;;;4944902;29;20023;-73
2021/11/06 14:19:50;;;;;;;2.78;2.40;;;;;;;;;;4944298;29;20028;-75
2021/11/06 14:22:23;;;;;;;2.35;2.13;;;;;;;;;;4945383;29;20483;-73
2021/11/06 14:24:49;;;;;;;2.88;2.30;;;;;;;;;;4940541;29;20367;-73
2021/11/06 14:27:15;;;;;;;2.30;2.00;;;;;;;;;;4926439;29;20123;-74
2021/11/06 14:29:41;;;;;;;3.38;2.33;;;;;;;;;;4944155;29;20035;-74
2021/11/06 14:32:11;;;;;;;2.10;1.90;;;;;;;;;;4943705;29;20027;-73
2021/11/06 14:34:37;;;;;;;2.72;2.40;;;;;;;;;;4943654;29;20132;-75
2021/11/06 14:37:11;;;;;;;2.83;2.20;;;;;;;;;;4944743;29;20043;-73
2021/11/06 14:39:42;;;;;;;2.28;2.08;;;;;;;;;;4943476;29;20024;-74
2021/11/06 14:42:09;;;;;;;3.05;2.20;;;;;;;;;;4943706;29;20073;-75
2021/11/06 14:44:37;;;;;;;2.70;2.20;;;;;;;;;;4941567;29;20095;-73